createdAt,value
2018-02-11T00:02:23.950Z,81.69
2018-02-11T00:04:52.741Z,81.74
2018-02-11T00:07:21.244Z,82.09
2018-02-11T00:09:50.208Z,81.92
2018-02-11T00:12:18.732Z,81.74
2018-02-11T00:14:47.504Z,81.80
2018-02-11T00:17:16.073Z,81.79
2018-02-11T00:19:45.102Z,81.94
2018-02-11T00:22:13.800Z,81.47
2018-02-11T00:24:42.282Z,81.94
2018-02-11T00:27:10.768Z,81.98
2018-02-11T00:29:39.301Z,81.79
2018-02-11T00:32:07.817Z,81.66
2018-02-11T00:34:37.564Z,81.71
2018-02-11T00:37:07.926Z,82.00
2018-02-11T00:39:37.943Z,81.86
2018-02-11T00:42:06.995Z,82.02
2018-02-11T00:44:36.874Z,81.92
2018-02-11T00:47:06.128Z,82.23
2018-02-11T00:49:34.935Z,82.11
2018-02-11T00:52:04.302Z,82.32
2018-02-11T00:54:32.901Z,82.31
2018-02-11T00:57:01.404Z,82.17
2018-02-11T00:59:30.577Z,82.68
2018-02-11T01:01:59.524Z,82.86
2018-02-11T01:04:28.504Z,82.85
2018-02-11T01:06:58.048Z,82.67
2018-02-11T01:09:26.776Z,82.59
2018-02-11T01:11:55.337Z,82.38
2018-02-11T01:14:23.812Z,82.52
2018-02-11T01:16:52.473Z,82.71
2018-02-11T01:19:21.009Z,82.45
2018-02-11T01:21:49.515Z,82.51
2018-02-11T01:24:18.205Z,82.64
2018-02-11T01:26:46.800Z,82.71
2018-02-11T01:29:15.283Z,82.59
2018-02-11T01:31:43.777Z,82.88
2018-02-11T01:34:12.288Z,82.48
2018-02-11T01:36:41.145Z,82.58
2018-02-11T01:39:09.635Z,82.61
2018-02-11T01:41:38.156Z,82.62
2018-02-11T01:44:07.584Z,82.69
2018-02-11T01:46:36.364Z,82.73
2018-02-11T01:49:04.936Z,82.53
2018-02-11T01:51:33.664Z,82.61
2018-02-11T01:54:02.155Z,82.39
2018-02-11T01:56:31.473Z,82.67
2018-02-11T01:59:00.325Z,82.88
2018-02-11T02:01:29.222Z,83.12
2018-02-11T02:03:59.202Z,83.37
2018-02-11T02:06:27.894Z,83.42
2018-02-11T02:08:56.481Z,83.65
2018-02-11T02:11:24.984Z,83.66
2018-02-11T02:13:53.840Z,83.53
2018-02-11T02:16:22.628Z,83.73
2018-02-11T02:18:51.141Z,83.86
2018-02-11T02:21:19.652Z,83.93
2018-02-11T02:23:48.204Z,83.78
2018-02-11T02:26:16.760Z,84.15
2018-02-11T02:28:45.487Z,84.04
2018-02-11T02:31:13.976Z,83.77
2018-02-11T02:33:42.521Z,84.13
2018-02-11T02:36:11.029Z,83.78
2018-02-11T02:38:39.484Z,83.76
2018-02-11T02:41:11.200Z,83.87
2018-02-11T02:43:39.826Z,83.79
2018-02-11T02:46:08.452Z,83.97
2018-02-11T02:48:36.988Z,84.05
2018-02-11T02:51:05.543Z,83.53
2018-02-11T02:53:34.132Z,83.43
2018-02-11T02:56:02.996Z,85.00
2018-02-11T02:58:31.509Z,84.84
2018-02-11T03:01:00.075Z,84.47
2018-02-11T03:03:28.570Z,84.00
2018-02-11T03:05:57.191Z,83.79
2018-02-11T03:08:25.729Z,83.84
2018-02-11T03:10:54.323Z,83.87
2018-02-11T03:13:22.823Z,83.93
2018-02-11T03:15:51.517Z,84.27
2018-02-11T03:18:20.122Z,84.21
2018-02-11T03:20:49.405Z,84.25
2018-02-11T03:23:17.980Z,84.02
2018-02-11T03:25:46.685Z,83.99
2018-02-11T03:28:15.524Z,83.78
2018-02-11T03:30:47.713Z,84.07
2018-02-11T03:33:22.268Z,83.98
2018-02-11T03:35:50.811Z,84.08
2018-02-11T03:38:22.369Z,84.17
2018-02-11T03:40:51.066Z,84.25
2018-02-11T03:43:19.722Z,84.46
2018-02-11T03:45:48.240Z,84.08
2018-02-11T03:48:16.700Z,84.63
2018-02-11T03:50:45.221Z,84.71
2018-02-11T03:53:13.848Z,84.98
2018-02-11T03:55:42.583Z,84.99
2018-02-11T03:58:11.231Z,85.46
2018-02-11T04:00:39.748Z,85.39
2018-02-11T04:03:08.290Z,85.47
2018-02-11T04:05:36.822Z,85.42
2018-02-11T04:08:05.320Z,85.75
2018-02-11T04:10:34.822Z,85.75
2018-02-11T04:13:03.766Z,86.05
2018-02-11T04:15:32.800Z,86.16
2018-02-11T04:18:01.750Z,86.17
2018-02-11T04:20:30.358Z,86.06
2018-02-11T04:22:59.332Z,85.99
2018-02-11T04:25:27.830Z,85.90
2018-02-11T04:27:56.291Z,86.02
2018-02-11T04:30:24.781Z,85.99
2018-02-11T04:32:53.280Z,85.79
2018-02-11T04:35:21.804Z,85.85
2018-02-11T04:37:50.605Z,85.59
2018-02-11T04:40:19.104Z,85.52
2018-02-11T04:42:47.584Z,85.15
2018-02-11T04:45:16.285Z,85.28
2018-02-11T04:47:47.693Z,85.39
2018-02-11T04:50:16.590Z,85.08
2018-02-11T04:52:45.471Z,84.97
2018-02-11T04:55:14.101Z,85.15
2018-02-11T04:57:42.573Z,85.21
2018-02-11T05:06:02.218Z,84.86
2018-02-11T05:08:30.744Z,84.83
2018-02-11T05:10:59.251Z,84.89
2018-02-11T05:13:27.768Z,84.75
2018-02-11T05:15:56.310Z,84.80
2018-02-11T05:18:24.956Z,84.61
2018-02-11T05:20:53.598Z,84.58
2018-02-11T05:23:22.305Z,84.63
2018-02-11T05:25:51.375Z,84.67
2018-02-11T05:28:20.063Z,84.57
2018-02-11T05:30:48.955Z,84.53
2018-02-11T05:33:17.435Z,84.70
2018-02-11T05:35:46.112Z,84.64
2018-02-11T05:38:14.660Z,84.54
2018-02-11T05:40:43.280Z,84.44
2018-02-11T05:43:11.809Z,84.61
2018-02-11T05:45:42.594Z,84.47
2018-02-11T05:48:13.779Z,84.61
2018-02-11T05:50:42.094Z,84.61
2018-02-11T05:53:10.362Z,84.52
2018-02-11T05:55:38.714Z,84.29
2018-02-11T05:58:07.022Z,84.45
2018-02-11T06:00:35.570Z,84.14
2018-02-11T06:03:03.831Z,84.18
2018-02-11T06:05:32.157Z,84.04
2018-02-11T06:08:00.439Z,83.98
2018-02-11T06:10:28.846Z,83.63
2018-02-11T06:12:57.126Z,83.59
2018-02-11T06:15:25.486Z,83.36
2018-02-11T06:17:53.892Z,83.43
2018-02-11T06:20:22.211Z,83.30
2018-02-11T06:22:50.603Z,83.35
2018-02-11T06:25:18.949Z,83.34
2018-02-11T06:27:47.377Z,83.30
2018-02-11T06:30:15.667Z,83.30
2018-02-11T06:32:44.143Z,83.31
2018-02-11T06:35:12.450Z,83.15
2018-02-11T06:37:40.727Z,83.13
2018-02-11T06:40:09.191Z,83.08
2018-02-11T06:42:37.481Z,83.01
2018-02-11T06:45:05.826Z,82.82
2018-02-11T06:47:34.151Z,82.90
2018-02-11T06:50:02.495Z,82.69
2018-02-11T06:52:30.822Z,82.76
2018-02-11T06:54:59.089Z,82.73
2018-02-11T06:57:27.451Z,82.60
2018-02-11T06:59:55.744Z,82.87
2018-02-11T07:02:24.253Z,82.79
2018-02-11T07:04:52.587Z,82.58
2018-02-11T07:07:20.920Z,82.66
2018-02-11T07:09:49.191Z,82.44
2018-02-11T07:12:17.706Z,82.22
2018-02-11T07:14:46.015Z,82.04
2018-02-11T07:17:14.468Z,81.89
2018-02-11T07:19:42.747Z,81.38
2018-02-11T07:22:11.138Z,80.57
2018-02-11T07:24:39.641Z,80.33
2018-02-11T07:27:07.982Z,80.04
2018-02-11T07:29:36.259Z,79.71
2018-02-11T07:32:04.579Z,79.32
2018-02-11T07:34:32.885Z,79.09
2018-02-11T07:37:01.265Z,78.72
2018-02-11T07:39:29.551Z,78.59
2018-02-11T07:41:57.899Z,78.51
2018-02-11T07:44:26.257Z,78.63
2018-02-11T07:46:54.613Z,78.73
2018-02-11T07:49:23.102Z,78.63
2018-02-11T07:51:51.597Z,78.55
2018-02-11T07:54:19.891Z,78.42
2018-02-11T07:56:48.278Z,78.30
2018-02-11T07:59:16.775Z,78.14
2018-02-11T08:01:45.095Z,78.12
2018-02-11T08:04:13.402Z,78.01
2018-02-11T08:06:41.960Z,77.96
2018-02-11T08:09:10.472Z,78.03
2018-02-11T08:11:39.053Z,77.93
2018-02-11T08:14:07.566Z,77.78
2018-02-11T08:16:36.183Z,77.95
2018-02-11T08:19:04.490Z,77.52
2018-02-11T08:21:33.190Z,77.29
2018-02-11T08:24:01.730Z,76.95
2018-02-11T08:26:30.084Z,76.76
2018-02-11T08:29:01.184Z,76.07
2018-02-11T08:31:29.627Z,75.14
2018-02-11T08:33:59.288Z,74.35
2018-02-11T08:36:28.094Z,73.73
2018-02-11T08:38:57.891Z,73.00
2018-02-11T08:41:26.405Z,72.58
2018-02-11T08:43:54.712Z,72.79
2018-02-11T08:46:23.088Z,72.63
2018-02-11T08:48:51.954Z,72.70
2018-02-11T08:51:20.619Z,72.50
2018-02-11T08:53:49.523Z,72.23
2018-02-11T08:56:17.905Z,72.02
2018-02-11T08:58:46.268Z,71.64
2018-02-11T09:01:14.876Z,71.52
2018-02-11T09:03:43.188Z,71.07
2018-02-11T09:06:12.714Z,70.59
2018-02-11T09:08:41.050Z,70.79
2018-02-11T09:11:10.464Z,70.21
2018-02-11T09:13:39.020Z,70.19
2018-02-11T09:16:07.349Z,69.68
2018-02-11T09:18:35.633Z,69.61
2018-02-11T09:21:05.146Z,69.42
2018-02-11T09:23:33.430Z,68.60
2018-02-11T09:26:02.143Z,68.13
2018-02-11T09:28:30.991Z,67.70
2018-02-11T09:31:00.536Z,67.04
2018-02-11T09:33:29.432Z,66.88
2018-02-11T09:35:58.027Z,66.88
2018-02-11T09:38:26.568Z,66.82
2018-02-11T09:40:55.059Z,66.92
2018-02-11T09:43:23.508Z,66.90
2018-02-11T09:45:51.834Z,67.24
2018-02-11T09:48:20.155Z,67.06
2018-02-11T09:50:48.457Z,67.15
2018-02-11T09:53:16.762Z,66.83
2018-02-11T09:55:45.071Z,66.65
2018-02-11T09:58:13.364Z,66.35
2018-02-11T10:00:41.676Z,66.21
2018-02-11T10:03:09.992Z,66.09
2018-02-11T10:05:38.355Z,65.58
2018-02-11T10:08:06.689Z,64.54
2018-02-11T10:10:35.171Z,63.66
2018-02-11T10:13:03.735Z,63.37
2018-02-11T10:15:34.317Z,62.82
2018-02-11T10:18:02.619Z,63.00
2018-02-11T10:20:30.952Z,62.68
2018-02-11T10:22:59.247Z,62.82
2018-02-11T10:25:27.727Z,62.92
2018-02-11T10:27:56.014Z,63.07
2018-02-11T10:30:24.446Z,62.30
2018-02-11T10:32:52.711Z,62.93
2018-02-11T10:35:21.206Z,62.79
2018-02-11T10:37:49.550Z,62.65
2018-02-11T10:40:17.855Z,62.55
2018-02-11T10:42:46.221Z,62.85
2018-02-11T10:45:14.519Z,62.55
2018-02-11T10:47:42.998Z,62.93
2018-02-11T10:50:11.317Z,63.13
2018-02-11T10:52:39.605Z,63.04
2018-02-11T10:55:08.912Z,63.25
2018-02-11T10:57:37.236Z,63.47
2018-02-11T11:00:05.603Z,64.23
2018-02-11T11:02:33.904Z,65.74
2018-02-11T11:05:02.409Z,67.11
2018-02-11T11:08:33.834Z,70.06
2018-02-11T11:11:02.342Z,71.64
2018-02-11T11:13:30.609Z,72.35
2018-02-11T11:15:58.918Z,73.72
2018-02-11T11:18:27.161Z,73.93
2018-02-11T11:20:55.565Z,75.03
2018-02-11T11:23:23.896Z,76.23
2018-02-11T11:25:52.334Z,75.53
2018-02-11T11:28:20.662Z,75.54
2018-02-11T11:30:48.974Z,75.76
2018-02-11T11:33:17.316Z,74.87
2018-02-11T11:35:45.621Z,74.94
2018-02-11T11:38:13.955Z,74.70
2018-02-11T11:40:42.404Z,74.51
2018-02-11T11:43:10.724Z,74.16
2018-02-11T11:45:39.046Z,74.12
2018-02-11T11:48:07.362Z,74.09
2018-02-11T11:50:35.649Z,73.89
2018-02-11T11:53:03.903Z,72.94
2018-02-11T11:55:32.440Z,72.66
2018-02-11T11:58:00.727Z,72.11
2018-02-11T12:00:29.013Z,72.25
2018-02-11T12:02:57.726Z,71.73
2018-02-11T12:05:26.049Z,72.46
2018-02-11T12:07:54.570Z,72.44
2018-02-11T12:10:22.872Z,72.20
2018-02-11T12:12:51.267Z,72.81
2018-02-11T12:15:21.813Z,72.42
2018-02-11T12:17:54.949Z,72.50
2018-02-11T12:20:23.787Z,72.81
2018-02-11T12:22:52.685Z,74.02
2018-02-11T12:25:21.065Z,75.58
2018-02-11T12:27:49.364Z,76.28
2018-02-11T12:30:17.659Z,77.41
2018-02-11T12:32:45.959Z,79.16
2018-02-11T12:35:14.446Z,80.28
2018-02-11T12:37:42.886Z,79.92
2018-02-11T12:40:11.209Z,81.45
2018-02-11T12:42:39.678Z,82.52
2018-02-11T12:45:08.635Z,84.13
2018-02-11T12:47:36.942Z,84.21
2018-02-11T12:50:05.255Z,84.77
2018-02-11T12:52:33.546Z,84.96
2018-02-11T12:55:01.813Z,85.19
2018-02-11T12:57:30.380Z,85.83
2018-02-11T12:59:58.666Z,85.97
2018-02-11T13:02:27.025Z,85.47
2018-02-11T13:04:56.693Z,86.05
2018-02-11T13:07:25.750Z,85.76
2018-02-11T13:09:54.540Z,86.48
2018-02-11T13:12:23.122Z,85.51
2018-02-11T13:14:51.404Z,85.93
2018-02-11T13:17:19.778Z,86.43
2018-02-11T13:19:50.676Z,86.48
2018-02-11T13:22:21.101Z,87.18
2018-02-11T13:24:50.124Z,87.16
2018-02-11T13:27:18.994Z,86.84
2018-02-11T13:29:48.274Z,88.09
2018-02-11T13:32:16.746Z,88.14
2018-02-11T13:34:45.740Z,88.24
2018-02-11T13:37:14.824Z,88.63
2018-02-11T13:39:44.011Z,88.38
2018-02-11T13:42:12.665Z,89.07
2018-02-11T13:44:40.995Z,88.97
2018-02-11T13:47:12.220Z,89.39
2018-02-11T13:49:42.808Z,89.58
2018-02-11T13:52:11.203Z,89.51
2018-02-11T13:54:39.569Z,89.79
2018-02-11T13:57:08.016Z,90.04
2018-02-11T13:59:36.387Z,90.35
2018-02-11T14:02:06.008Z,90.28
2018-02-11T14:04:35.442Z,90.56
2018-02-11T14:07:03.796Z,90.92
2018-02-11T14:09:36.704Z,90.72
2018-02-11T14:12:05.330Z,90.75
2018-02-11T14:14:34.260Z,91.28
2018-02-11T14:17:02.790Z,91.33
2018-02-11T14:19:31.996Z,91.08
2018-02-11T14:22:00.523Z,91.06
2018-02-11T14:24:28.839Z,91.20
2018-02-11T14:26:57.578Z,91.24
2018-02-11T14:29:26.071Z,91.59
2018-02-11T14:31:55.281Z,91.88
2018-02-11T14:34:23.922Z,91.93
2018-02-11T14:37:05.644Z,92.03
2018-02-11T14:48:56.438Z,92.30
2018-02-11T14:51:25.034Z,92.45
2018-02-11T14:54:01.588Z,92.17
2018-02-11T14:56:57.170Z,92.32
2018-02-11T15:03:08.885Z,92.51
2018-02-11T15:10:50.246Z,92.37
2018-02-11T15:16:27.256Z,92.81
2018-02-11T15:19:06.044Z,92.55
2018-02-11T15:21:34.780Z,92.31
2018-02-11T21:56:43.199Z,90.23
2018-02-11T21:59:11.314Z,90.30
2018-02-11T22:01:39.759Z,91.26
2018-02-11T22:04:08.055Z,91.31
2018-02-11T22:06:36.347Z,91.26
2018-02-11T22:09:05.066Z,91.73
2018-02-11T22:11:33.450Z,92.14
2018-02-11T22:14:01.922Z,91.67
2018-02-11T22:16:32.120Z,91.68
2018-02-11T22:19:01.039Z,91.68
2018-02-11T22:21:29.375Z,91.37
2018-02-11T22:23:57.846Z,91.50
2018-02-11T22:26:26.410Z,91.87
2018-02-11T22:29:00.290Z,91.24
2018-02-11T22:31:32.147Z,90.65
2018-02-11T22:34:00.899Z,90.57
2018-02-11T22:36:29.849Z,90.84
2018-02-11T22:38:59.344Z,90.98
2018-02-11T22:41:28.014Z,90.83
2018-02-11T22:43:57.925Z,91.01
2018-02-11T22:46:26.375Z,90.86
2018-02-11T22:48:55.510Z,91.34
2018-02-11T22:51:30.434Z,91.61
2018-02-11T22:53:58.745Z,92.03
2018-02-11T22:56:27.561Z,92.10
2018-02-11T23:01:24.295Z,92.73
2018-02-11T23:03:52.932Z,92.70
2018-02-11T23:06:21.417Z,92.44
2018-02-11T23:08:49.689Z,92.86
2018-02-11T23:11:18.010Z,93.04
2018-02-11T23:13:46.418Z,93.03
2018-02-11T23:16:14.878Z,93.03
2018-02-11T23:18:43.171Z,93.04
2018-02-11T23:21:11.488Z,92.70
2018-02-11T23:23:40.008Z,93.14
2018-02-11T23:26:08.317Z,92.73
2018-02-11T23:28:36.906Z,92.59
2018-02-11T23:31:05.330Z,92.22
2018-02-11T23:33:33.851Z,93.15
2018-02-11T23:36:02.151Z,92.15
2018-02-11T23:38:31.023Z,92.91
2018-02-11T23:40:59.529Z,92.72
2018-02-11T23:43:27.938Z,92.62
2018-02-11T23:45:56.430Z,93.05
2018-02-11T23:48:24.780Z,92.93
2018-02-11T23:50:54.424Z,92.82
2018-02-11T23:53:24.258Z,92.16
2018-02-11T23:55:52.742Z,92.64
2018-02-11T23:58:21.354Z,92.79
